KFRG

Republic Airport

Farmingdale, New York, USA
METAR KFRG 172053Z 09006KT 10SM FEW041 BKN110 02/M06 A3031 RMK AO2 SLP266 T00171056 56014
Observed Flight Rules
Feb-17 @ 20:53 UTC (42 minutes ago) Visual Flight Rules
Wind Visibility Clouds
90° at 6 knots 10 miles
  • Few at 4,100' AGL
  • Broken at 11,000' AGL
Temperatures Readings
Current 2°C / 36°F
Dewpoint -6°C / 21°F
Humidity 56%
Altimeter 30.31" Hg
Pressure 1026.6 hPa
Elevation 21
METAR KFRG 172053Z 09006KT 10SM FEW041 BKN110 02/M06 A3031 RMK AO2 SLP266 T00171056 56014
Observed Flight Rules
Feb-17 @ 20:53 UTC
(42 minutes ago)
VFR
Wind Visibility
90° at 6 knots 10 miles
Clouds
  • Few at 4,100' AGL
  • Broken at 11,000' AGL
Temperature Dewpoint
2°C / 36°F -6°C / 21°F
Humidity Altimeter Pressure
56% 30.31" Hg 1026.6 hPa